createdAt,value
2018-07-07T00:00:38.447Z,0.00
2018-07-07T00:01:38.383Z,0.00
2018-07-07T00:02:38.326Z,0.00
2018-07-07T00:03:38.264Z,0.00
2018-07-07T00:04:38.201Z,0.00
2018-07-07T00:05:38.139Z,0.00
2018-07-07T00:06:38.081Z,0.00
2018-07-07T00:07:38.015Z,0.00
2018-07-07T00:08:37.955Z,0.00
2018-07-07T00:09:37.897Z,0.00
2018-07-07T00:10:37.831Z,0.00
2018-07-07T00:11:37.770Z,0.00
2018-07-07T00:12:37.712Z,0.00
2018-07-07T00:13:37.646Z,0.00
2018-07-07T00:14:37.588Z,0.00
2018-07-07T00:15:37.528Z,0.00
2018-07-07T00:16:37.464Z,0.00
2018-07-07T00:17:37.402Z,0.00
2018-07-07T00:18:37.343Z,0.00
2018-07-07T00:19:37.277Z,0.00
2018-07-07T00:20:37.216Z,0.00
2018-07-07T00:21:37.160Z,0.00
2018-07-07T00:22:37.094Z,0.00
2018-07-07T00:23:37.029Z,0.00
2018-07-07T00:24:36.979Z,0.00
2018-07-07T00:25:36.911Z,0.00
2018-07-07T00:26:36.845Z,0.00
2018-07-07T00:27:36.786Z,0.00
2018-07-07T00:28:36.725Z,0.00
2018-07-07T00:29:36.666Z,0.00
2018-07-07T00:30:36.600Z,0.00
2018-07-07T00:31:36.538Z,0.00
2018-07-07T00:32:36.473Z,0.00
2018-07-07T00:33:36.413Z,0.00
2018-07-07T00:34:36.354Z,0.00
2018-07-07T00:35:36.292Z,0.00
2018-07-07T00:36:36.230Z,0.00
2018-07-07T00:37:36.168Z,0.00
2018-07-07T00:38:36.107Z,0.00
2018-07-07T00:39:36.042Z,0.00
2018-07-07T00:40:35.983Z,0.00
2018-07-07T00:41:35.923Z,0.00
2018-07-07T00:42:35.854Z,0.00
2018-07-07T00:43:35.796Z,0.00
2018-07-07T00:44:35.738Z,0.00
2018-07-07T00:45:35.669Z,0.00
2018-07-07T00:46:35.612Z,0.00
2018-07-07T00:47:35.564Z,0.00
2018-07-07T00:48:35.489Z,0.00
2018-07-07T00:49:35.426Z,0.00
2018-07-07T00:50:35.361Z,0.00
2018-07-07T00:51:35.308Z,0.00
2018-07-07T00:52:35.240Z,0.00
2018-07-07T00:53:35.178Z,0.00
2018-07-07T00:54:35.117Z,0.00
2018-07-07T00:55:35.057Z,0.00
2018-07-07T00:56:34.992Z,0.00
2018-07-07T00:57:34.929Z,0.00
2018-07-07T00:58:34.870Z,0.00
2018-07-07T00:59:34.807Z,0.00
2018-07-07T01:00:34.748Z,0.00
2018-07-07T01:01:34.683Z,0.00
2018-07-07T01:02:34.620Z,0.00
2018-07-07T01:03:34.561Z,0.00
2018-07-07T01:04:34.496Z,0.00
2018-07-07T01:05:34.433Z,0.00
2018-07-07T01:06:34.374Z,0.00
2018-07-07T01:07:34.312Z,0.00
2018-07-07T01:08:34.251Z,0.00
2018-07-07T01:09:34.187Z,0.00
2018-07-07T01:10:34.122Z,0.00
2018-07-07T01:11:34.062Z,0.00
2018-07-07T01:12:34.002Z,0.00
2018-07-07T01:13:33.942Z,0.00
2018-07-07T01:14:33.875Z,0.00
2018-07-07T01:15:33.814Z,0.00
2018-07-07T01:16:33.755Z,0.00
2018-07-07T01:17:33.688Z,0.00
2018-07-07T01:18:33.629Z,0.00
2018-07-07T01:19:33.571Z,0.00
2018-07-07T01:20:33.506Z,0.00
2018-07-07T01:21:33.440Z,0.00
2018-07-07T01:22:33.377Z,0.00
2018-07-07T01:23:33.315Z,0.00
2018-07-07T01:24:33.251Z,0.00
2018-07-07T01:25:33.191Z,0.00
2018-07-07T01:26:33.132Z,0.00
2018-07-07T01:27:33.077Z,0.00
2018-07-07T01:28:33.004Z,0.00
2018-07-07T01:29:32.942Z,0.00
2018-07-07T01:30:32.886Z,0.00
2018-07-07T01:31:32.819Z,0.00
2018-07-07T01:32:32.759Z,0.00
2018-07-07T01:33:32.695Z,0.00
2018-07-07T01:34:32.630Z,0.00
2018-07-07T01:35:32.571Z,0.00
2018-07-07T01:36:32.508Z,0.00
2018-07-07T01:37:32.444Z,0.00
2018-07-07T01:38:32.387Z,0.00
2018-07-07T01:39:32.324Z,0.00
2018-07-07T01:40:32.261Z,0.00
2018-07-07T01:41:32.196Z,0.00
2018-07-07T01:42:32.132Z,0.00
2018-07-07T01:43:32.072Z,0.00
2018-07-07T01:44:32.014Z,0.00
2018-07-07T01:45:31.947Z,0.00
2018-07-07T01:46:31.882Z,0.00
2018-07-07T01:47:31.823Z,0.00
2018-07-07T01:48:31.758Z,0.00
2018-07-07T01:49:31.697Z,0.00
2018-07-07T01:50:31.636Z,0.00
2018-07-07T01:51:31.572Z,0.00
2018-07-07T01:52:31.512Z,0.00
2018-07-07T01:53:31.453Z,0.00
2018-07-07T01:54:31.384Z,0.00
2018-07-07T01:55:31.318Z,0.00
2018-07-07T01:56:31.260Z,0.00
2018-07-07T01:57:31.198Z,0.00
2018-07-07T01:58:31.138Z,0.00
2018-07-07T01:59:31.075Z,0.00
2018-07-07T02:00:31.044Z,0.00
2018-07-07T02:01:30.953Z,0.00
2018-07-07T02:02:30.883Z,0.00
2018-07-07T02:03:30.824Z,0.00
2018-07-07T02:04:30.771Z,0.00
2018-07-07T02:05:30.700Z,0.00
2018-07-07T02:06:30.637Z,0.00
2018-07-07T02:07:30.572Z,0.00
2018-07-07T02:08:30.509Z,0.00
2018-07-07T02:09:30.448Z,4.00
2018-07-07T02:10:30.489Z,4.00
2018-07-07T02:11:30.324Z,4.00
2018-07-07T02:12:30.261Z,0.00
2018-07-07T02:13:30.198Z,0.00
2018-07-07T02:14:30.139Z,4.00
2018-07-07T02:15:30.072Z,4.00
2018-07-07T02:16:30.012Z,8.00
2018-07-07T02:17:29.947Z,4.00
2018-07-07T02:18:29.894Z,8.00
2018-07-07T02:19:29.819Z,4.00
2018-07-07T02:20:29.754Z,8.00
2018-07-07T02:21:29.694Z,8.00
2018-07-07T02:22:29.634Z,8.00
2018-07-07T02:23:29.569Z,8.00
2018-07-07T02:24:29.517Z,12.00
2018-07-07T02:25:29.445Z,12.00
2018-07-07T02:26:29.387Z,12.00
2018-07-07T02:27:29.316Z,16.00
2018-07-07T02:28:29.257Z,20.00
2018-07-07T02:29:29.201Z,24.00
2018-07-07T02:30:29.133Z,24.00
2018-07-07T02:31:29.072Z,24.00
2018-07-07T02:32:29.005Z,28.00
2018-07-07T02:33:28.942Z,32.00
2018-07-07T02:34:28.883Z,36.00
2018-07-07T02:35:28.823Z,44.00
2018-07-07T02:36:28.758Z,44.00
2018-07-07T02:37:28.693Z,52.00
2018-07-07T02:38:28.628Z,60.00
2018-07-07T02:39:28.567Z,64.00
2018-07-07T02:40:28.504Z,72.00
2018-07-07T02:41:28.443Z,76.00
2018-07-07T02:42:28.379Z,84.00
2018-07-07T02:43:28.318Z,96.00
2018-07-07T02:44:28.260Z,108.00
2018-07-07T02:45:28.191Z,116.00
2018-07-07T02:46:28.146Z,128.00
2018-07-07T02:47:28.063Z,140.00
2018-07-07T02:48:28.001Z,152.00
2018-07-07T02:49:27.940Z,164.00
2018-07-07T02:50:27.876Z,180.00
2018-07-07T02:51:27.817Z,192.00
2018-07-07T02:52:27.748Z,208.00
2018-07-07T02:53:27.687Z,228.00
2018-07-07T02:54:27.625Z,244.00
2018-07-07T02:55:27.562Z,260.00
2018-07-07T02:56:27.500Z,280.00
2018-07-07T02:57:27.437Z,296.00
2018-07-07T02:58:27.373Z,316.00
2018-07-07T02:59:27.310Z,336.00
2018-07-07T03:00:27.246Z,360.00
2018-07-07T03:01:27.184Z,380.00
2018-07-07T03:02:27.128Z,404.00
2018-07-07T03:03:27.205Z,428.00
2018-07-07T03:04:26.991Z,452.00
2018-07-07T03:05:26.931Z,480.00
2018-07-07T03:06:26.874Z,504.00
2018-07-07T03:07:26.813Z,528.00
2018-07-07T03:08:26.744Z,552.00
2018-07-07T03:09:26.681Z,580.00
2018-07-07T03:10:26.617Z,600.00
2018-07-07T03:11:26.552Z,628.00
2018-07-07T03:12:26.493Z,656.00
2018-07-07T03:13:26.427Z,680.00
2018-07-07T03:14:26.366Z,708.00
2018-07-07T03:15:26.304Z,732.00
2018-07-07T03:16:26.241Z,760.00
2018-07-07T03:17:26.177Z,784.00
2018-07-07T03:18:26.113Z,812.00
2018-07-07T03:19:26.050Z,840.00
2018-07-07T03:20:25.990Z,868.00
2018-07-07T03:21:25.928Z,896.00
2018-07-07T03:22:25.861Z,916.00
2018-07-07T03:23:25.800Z,948.00
2018-07-07T03:24:25.741Z,976.00
2018-07-07T03:25:25.671Z,1004.00
2018-07-07T03:26:25.609Z,1028.00
2018-07-07T03:27:25.547Z,1052.00
2018-07-07T03:28:25.483Z,1076.00
2018-07-07T03:29:25.439Z,1100.00
2018-07-07T03:30:25.358Z,1128.00
2018-07-07T03:31:25.293Z,1156.00
2018-07-07T03:32:25.230Z,1180.00
2018-07-07T03:33:25.167Z,1212.00
2018-07-07T03:34:25.106Z,1244.00
2018-07-07T03:35:25.043Z,1268.00
2018-07-07T03:36:24.978Z,1296.00
2018-07-07T03:37:24.913Z,1316.00
2018-07-07T03:38:24.855Z,1336.00
2018-07-07T03:39:24.792Z,1360.00
2018-07-07T03:40:24.736Z,1376.00
2018-07-07T03:41:24.665Z,1392.00
2018-07-07T03:42:24.599Z,1404.00
2018-07-07T03:43:24.542Z,1420.00
2018-07-07T03:44:24.475Z,1448.00
2018-07-07T03:45:24.407Z,1488.00
2018-07-07T03:46:24.347Z,1556.00
2018-07-07T03:47:24.293Z,1628.00
2018-07-07T03:48:24.223Z,1692.00
2018-07-07T03:49:24.261Z,1740.00
2018-07-07T03:50:24.094Z,1772.00
2018-07-07T03:51:24.037Z,1804.00
2018-07-07T03:52:23.970Z,1860.00
2018-07-07T03:53:23.908Z,1928.00
2018-07-07T03:54:23.841Z,1976.00
2018-07-07T03:55:23.779Z,2008.00
2018-07-07T03:56:23.718Z,2064.00
2018-07-07T03:57:23.656Z,2104.00
2018-07-07T03:58:23.590Z,2132.00
2018-07-07T03:59:23.529Z,2144.00
2018-07-07T04:00:23.467Z,2156.00
2018-07-07T04:01:23.402Z,2188.00
2018-07-07T04:02:23.340Z,2228.00
2018-07-07T04:03:23.281Z,2160.00
2018-07-07T04:04:23.213Z,2152.00
2018-07-07T04:05:23.148Z,2180.00
2018-07-07T04:06:23.087Z,2208.00
2018-07-07T04:07:23.044Z,2208.00
2018-07-07T04:08:22.961Z,2188.00
2018-07-07T04:09:22.896Z,2124.00
2018-07-07T04:10:22.837Z,2156.00
2018-07-07T04:11:22.772Z,2236.00
2018-07-07T04:12:22.713Z,2328.00
2018-07-07T04:13:22.650Z,2364.00
2018-07-07T04:14:22.582Z,2444.00
2018-07-07T04:15:22.517Z,2488.00
2018-07-07T04:16:22.459Z,2460.00
2018-07-07T04:17:22.392Z,2540.00
2018-07-07T04:18:22.330Z,2580.00
2018-07-07T04:19:22.269Z,2552.00
2018-07-07T04:20:22.207Z,2600.00
2018-07-07T04:21:22.143Z,2664.00
2018-07-07T04:22:22.081Z,2780.00
2018-07-07T04:23:22.016Z,2772.00
2018-07-07T04:24:21.961Z,2868.00
2018-07-07T04:25:21.890Z,2980.00
2018-07-07T04:26:21.821Z,2892.00
2018-07-07T04:27:21.761Z,2684.00
2018-07-07T04:28:21.697Z,2680.00
2018-07-07T04:29:21.638Z,2608.00
2018-07-07T04:30:21.583Z,2408.00
2018-07-07T04:31:21.513Z,2432.00
2018-07-07T04:32:21.449Z,2444.00
2018-07-07T04:33:21.386Z,2452.00
2018-07-07T04:34:21.322Z,2520.00
2018-07-07T04:35:21.259Z,2600.00
2018-07-07T04:36:21.195Z,2696.00
2018-07-07T04:37:21.132Z,2836.00
2018-07-07T04:38:21.072Z,2888.00
2018-07-07T04:39:21.010Z,2844.00
2018-07-07T04:40:20.945Z,3036.00
2018-07-07T04:41:20.881Z,3164.00
2018-07-07T04:42:20.821Z,3192.00
2018-07-07T04:43:20.760Z,3180.00
2018-07-07T04:44:20.696Z,3176.00
2018-07-07T04:45:20.633Z,3384.00
2018-07-07T04:46:20.575Z,3568.00
2018-07-07T04:47:20.518Z,3704.00
2018-07-07T04:48:20.443Z,4076.00
2018-07-07T04:49:20.380Z,4020.00
2018-07-07T04:50:20.319Z,3668.00
2018-07-07T04:51:20.259Z,3744.00
2018-07-07T04:52:20.223Z,3900.00
2018-07-07T04:53:20.127Z,3856.00
2018-07-07T04:54:20.064Z,3760.00
2018-07-07T04:55:20.000Z,3904.00
2018-07-07T04:56:19.939Z,4324.00
2018-07-07T04:57:19.879Z,4356.00
2018-07-07T04:58:19.811Z,4548.00
2018-07-07T04:59:19.751Z,4736.00
2018-07-07T05:00:19.687Z,4004.00
2018-07-07T05:01:19.623Z,3728.00
2018-07-07T05:02:19.564Z,3736.00
2018-07-07T05:03:19.501Z,3740.00
2018-07-07T05:04:19.438Z,3520.00
2018-07-07T05:05:19.377Z,3436.00
2018-07-07T05:06:19.313Z,3412.00
2018-07-07T05:07:19.242Z,3192.00
2018-07-07T05:08:19.192Z,3100.00
2018-07-07T05:09:19.124Z,3492.00
2018-07-07T05:10:19.061Z,3816.00
2018-07-07T05:11:18.996Z,3252.00
2018-07-07T05:12:18.945Z,3192.00
2018-07-07T05:13:18.874Z,3332.00
2018-07-07T05:14:18.809Z,3220.00
2018-07-07T05:15:18.746Z,2852.00
2018-07-07T05:16:18.693Z,2532.00
2018-07-07T05:17:18.707Z,2616.00
2018-07-07T05:18:18.558Z,3004.00
2018-07-07T05:19:18.506Z,2652.00
2018-07-07T05:20:18.435Z,2620.00
2018-07-07T05:21:18.372Z,2868.00
2018-07-07T05:22:18.309Z,2868.00
2018-07-07T05:23:18.249Z,3152.00
2018-07-07T05:24:18.186Z,3020.00
2018-07-07T05:25:18.121Z,3264.00
2018-07-07T05:26:18.058Z,3544.00
2018-07-07T05:27:17.995Z,3800.00
2018-07-07T05:28:18.792Z,4328.00
2018-07-07T05:29:17.871Z,4544.00
2018-07-07T05:30:17.812Z,5948.00
2018-07-07T05:31:17.745Z,8736.00
2018-07-07T05:32:17.681Z,4796.00
2018-07-07T05:33:17.617Z,7108.00
2018-07-07T05:34:17.557Z,5336.00
2018-07-07T05:35:17.497Z,6548.00
2018-07-07T05:36:17.431Z,4656.00
2018-07-07T05:37:17.376Z,5452.00
2018-07-07T05:38:17.315Z,6924.00
2018-07-07T05:39:17.241Z,6056.00
2018-07-07T05:40:17.180Z,5028.00
2018-07-07T05:41:17.117Z,5412.00
2018-07-07T05:42:17.059Z,4972.00
2018-07-07T05:43:16.998Z,5984.00
2018-07-07T05:44:16.932Z,6184.00
2018-07-07T05:45:16.867Z,5412.00
2018-07-07T05:46:16.808Z,5220.00
2018-07-07T05:47:16.746Z,4480.00
2018-07-07T05:48:16.683Z,4140.00
2018-07-07T05:49:16.620Z,5072.00
2018-07-07T05:50:16.557Z,5624.00
2018-07-07T05:51:16.495Z,4796.00
2018-07-07T05:52:16.435Z,4352.00
2018-07-07T05:53:16.372Z,4908.00
2018-07-07T05:54:16.307Z,6288.00
2018-07-07T05:55:16.245Z,7516.00
2018-07-07T05:56:16.186Z,5664.00
2018-07-07T05:57:16.170Z,4516.00
2018-07-07T05:58:16.064Z,4240.00
2018-07-07T05:59:15.999Z,5556.00
2018-07-07T06:00:15.938Z,3912.00
2018-07-07T06:01:15.875Z,6048.00
2018-07-07T06:02:15.814Z,5976.00
2018-07-07T06:03:15.752Z,5480.00
2018-07-07T06:04:15.693Z,5568.00
2018-07-07T06:05:15.632Z,3860.00
2018-07-07T06:06:15.559Z,5444.00
2018-07-07T06:07:15.506Z,5516.00
2018-07-07T06:08:15.443Z,5232.00
2018-07-07T06:09:15.381Z,4960.00
2018-07-07T06:10:15.328Z,5956.00
2018-07-07T06:11:15.259Z,4272.00
2018-07-07T06:12:15.199Z,5708.00
2018-07-07T06:13:15.133Z,5464.00
2018-07-07T06:14:15.070Z,5324.00
2018-07-07T06:15:15.011Z,5428.00
2018-07-07T06:16:14.949Z,5564.00
2018-07-07T06:17:14.888Z,4372.00
2018-07-07T06:18:14.874Z,5616.00
2018-07-07T06:19:14.762Z,5448.00
2018-07-07T06:20:14.700Z,4264.00
2018-07-07T06:21:14.642Z,5448.00
2018-07-07T06:22:14.581Z,5612.00
2018-07-07T06:23:14.517Z,5212.00
2018-07-07T06:24:14.456Z,4504.00
2018-07-07T06:25:14.393Z,4528.00
2018-07-07T06:26:14.331Z,6072.00
2018-07-07T06:27:14.271Z,4332.00
2018-07-07T06:28:14.209Z,5216.00
2018-07-07T06:29:14.147Z,4564.00
2018-07-07T06:30:14.091Z,5304.00
2018-07-07T06:31:14.023Z,5748.00
2018-07-07T06:32:13.965Z,4576.00
2018-07-07T06:33:13.900Z,4812.00
2018-07-07T06:34:13.840Z,7016.00
2018-07-07T06:35:13.778Z,7260.00
2018-07-07T06:36:13.723Z,6260.00
2018-07-07T06:37:13.660Z,7012.00
2018-07-07T06:38:13.592Z,7296.00
2018-07-07T06:39:13.536Z,8572.00
2018-07-07T06:40:13.469Z,6596.00
2018-07-07T06:41:13.408Z,6212.00
2018-07-07T06:42:13.351Z,4040.00
2018-07-07T06:43:13.286Z,4124.00
2018-07-07T06:44:13.226Z,5968.00
2018-07-07T06:45:13.172Z,5688.00
2018-07-07T06:46:13.100Z,6152.00
2018-07-07T06:47:13.042Z,6796.00
2018-07-07T06:48:12.986Z,5520.00
2018-07-07T06:49:12.919Z,7404.00
2018-07-07T06:50:12.858Z,8004.00
2018-07-07T06:51:12.798Z,7616.00
2018-07-07T06:52:12.733Z,6224.00
2018-07-07T06:53:12.676Z,5728.00
2018-07-07T06:54:12.617Z,5448.00
2018-07-07T06:55:12.557Z,6068.00
2018-07-07T06:56:12.495Z,5308.00
2018-07-07T06:57:12.435Z,5972.00
2018-07-07T06:58:12.366Z,6024.00
2018-07-07T06:59:12.308Z,4800.00
2018-07-07T07:00:12.247Z,6416.00
2018-07-07T07:01:12.186Z,5876.00
2018-07-07T07:02:12.128Z,5860.00
2018-07-07T07:03:12.068Z,5836.00
2018-07-07T07:04:12.006Z,5768.00
2018-07-07T07:05:11.944Z,5840.00
2018-07-07T07:06:11.885Z,5836.00
2018-07-07T07:07:11.823Z,5956.00
2018-07-07T07:08:11.764Z,6080.00
2018-07-07T07:09:11.700Z,6220.00
2018-07-07T07:10:11.646Z,6288.00
2018-07-07T07:11:11.579Z,6612.00
2018-07-07T07:12:11.518Z,6664.00
2018-07-07T07:13:11.462Z,5184.00
2018-07-07T07:14:11.398Z,5268.00
2018-07-07T07:15:11.340Z,5772.00
2018-07-07T07:16:11.282Z,5812.00
2018-07-07T07:17:11.216Z,5800.00
2018-07-07T07:18:11.151Z,5804.00
2018-07-07T07:19:11.097Z,6224.00
2018-07-07T07:20:11.033Z,6096.00
2018-07-07T07:21:10.975Z,5676.00
2018-07-07T07:22:10.913Z,5708.00
2018-07-07T07:23:10.851Z,5472.00
2018-07-07T07:24:10.791Z,5440.00
2018-07-07T07:25:10.730Z,5456.00
2018-07-07T07:26:10.764Z,5384.00
2018-07-07T07:27:10.610Z,5376.00
2018-07-07T07:28:10.550Z,5620.00
2018-07-07T07:29:10.490Z,5692.00
2018-07-07T07:30:10.425Z,5804.00
2018-07-07T07:31:10.362Z,5396.00
2018-07-07T07:32:10.322Z,5360.00
2018-07-07T07:33:10.331Z,5404.00
2018-07-07T07:34:10.186Z,5488.00
2018-07-07T07:35:10.125Z,5536.00
2018-07-07T07:36:10.062Z,5564.00
2018-07-07T07:37:09.999Z,5336.00
2018-07-07T07:38:09.943Z,5500.00
2018-07-07T07:39:09.883Z,5696.00
2018-07-07T07:40:09.822Z,5516.00
2018-07-07T07:41:09.759Z,5508.00
2018-07-07T07:42:09.698Z,5468.00
2018-07-07T07:43:09.645Z,5988.00
2018-07-07T07:44:09.596Z,6092.00
2018-07-07T07:45:09.512Z,6268.00
2018-07-07T07:46:09.461Z,6472.00
2018-07-07T07:47:09.405Z,6700.00
2018-07-07T07:48:09.337Z,6840.00
2018-07-07T07:49:09.277Z,6836.00
2018-07-07T07:50:09.222Z,6896.00
2018-07-07T07:51:09.151Z,7044.00
2018-07-07T07:52:09.096Z,7208.00
2018-07-07T07:53:09.040Z,7352.00
2018-07-07T07:54:08.969Z,7248.00
2018-07-07T07:55:08.910Z,7212.00
2018-07-07T07:56:08.851Z,7900.00
2018-07-07T07:57:08.788Z,7676.00
2018-07-07T07:58:08.733Z,7572.00
2018-07-07T07:59:08.677Z,7784.00
2018-07-07T08:00:08.617Z,7512.00
2018-07-07T08:01:08.553Z,7568.00
2018-07-07T08:02:08.490Z,8024.00
2018-07-07T08:03:08.433Z,7728.00
2018-07-07T08:04:08.385Z,8036.00
2018-07-07T08:05:08.318Z,8160.00
2018-07-07T08:06:08.252Z,7496.00
2018-07-07T08:07:08.193Z,7600.00
2018-07-07T08:08:08.132Z,7320.00
2018-07-07T08:09:08.070Z,7624.00
2018-07-07T08:10:08.015Z,7552.00
2018-07-07T08:11:07.960Z,6668.00
2018-07-07T08:12:07.896Z,6708.00
2018-07-07T08:13:07.832Z,6256.00
2018-07-07T08:14:07.820Z,5940.00
2018-07-07T08:15:07.712Z,5652.00
2018-07-07T08:16:07.659Z,5528.00
2018-07-07T08:17:07.590Z,5592.00
2018-07-07T08:18:07.533Z,5740.00
2018-07-07T08:19:07.475Z,5452.00
2018-07-07T08:20:07.421Z,5044.00
2018-07-07T08:21:07.362Z,4744.00
2018-07-07T08:22:07.293Z,4752.00
2018-07-07T08:23:07.234Z,4612.00
2018-07-07T08:24:07.177Z,4596.00
2018-07-07T08:25:07.112Z,4712.00
2018-07-07T08:26:07.059Z,4772.00
2018-07-07T08:27:06.992Z,5768.00
2018-07-07T08:28:06.932Z,5208.00
2018-07-07T08:29:06.875Z,5744.00
2018-07-07T08:30:06.813Z,5588.00
2018-07-07T08:31:06.756Z,5460.00
2018-07-07T08:32:06.725Z,5428.00
2018-07-07T08:33:06.633Z,5260.00
2018-07-07T08:34:06.576Z,5148.00
2018-07-07T08:35:06.512Z,4720.00
2018-07-07T08:36:06.451Z,4536.00
2018-07-07T08:37:06.388Z,5384.00
2018-07-07T08:38:06.331Z,5388.00
2018-07-07T08:39:06.276Z,5572.00
2018-07-07T08:40:06.212Z,5720.00
2018-07-07T08:41:06.148Z,5768.00
2018-07-07T08:42:06.150Z,6152.00
2018-07-07T08:43:06.034Z,6320.00
2018-07-07T08:44:05.972Z,6500.00
2018-07-07T08:45:05.915Z,6628.00
2018-07-07T08:46:05.845Z,6768.00
2018-07-07T08:47:05.793Z,6984.00
2018-07-07T08:48:05.730Z,7220.00
2018-07-07T08:49:05.666Z,7448.00
2018-07-07T08:50:05.620Z,7624.00
2018-07-07T08:51:05.547Z,7720.00
2018-07-07T08:52:05.504Z,7764.00
2018-07-07T08:53:05.433Z,7688.00
2018-07-07T08:54:05.371Z,7520.00
2018-07-07T08:55:05.314Z,7756.00
2018-07-07T08:56:05.254Z,7760.00
2018-07-07T08:57:12.833Z,8152.00
2018-07-07T08:58:59.522Z,8440.00
2018-07-07T08:59:59.436Z,8540.00
2018-07-07T09:00:59.371Z,8748.00
2018-07-07T09:01:59.323Z,8344.00
2018-07-07T09:02:59.253Z,8160.00
2018-07-07T09:03:59.192Z,8612.00
2018-07-07T09:04:59.137Z,8472.00
2018-07-07T09:05:59.081Z,8176.00
2018-07-07T09:06:59.039Z,7832.00
2018-07-07T09:07:58.961Z,7340.00
2018-07-07T09:08:58.901Z,7084.00
2018-07-07T09:09:58.836Z,7052.00
2018-07-07T09:10:58.784Z,6840.00
2018-07-07T09:11:58.716Z,6480.00
2018-07-07T09:12:58.668Z,6152.00
2018-07-07T09:13:58.605Z,5960.00
2018-07-07T09:14:58.550Z,5684.00
2018-07-07T09:15:58.482Z,5620.00
2018-07-07T09:16:58.436Z,5684.00
2018-07-07T09:17:58.368Z,5736.00
2018-07-07T09:18:58.314Z,6200.00
2018-07-07T09:19:58.250Z,6116.00
2018-07-07T09:20:58.190Z,6152.00
2018-07-07T09:21:58.160Z,6164.00
2018-07-07T09:22:58.062Z,6256.00
2018-07-07T09:23:58.011Z,6412.00
2018-07-07T09:24:57.950Z,6288.00
2018-07-07T09:25:57.889Z,6204.00
2018-07-07T09:26:57.829Z,6344.00
2018-07-07T09:27:57.773Z,6880.00
2018-07-07T09:28:57.726Z,7116.00
2018-07-07T09:29:57.649Z,7436.00
2018-07-07T09:30:57.597Z,7764.00
2018-07-07T09:31:57.542Z,7392.00
2018-07-07T09:32:57.474Z,7136.00
2018-07-07T09:33:57.453Z,6748.00
2018-07-07T09:34:57.356Z,6680.00
2018-07-07T09:35:57.410Z,6388.00
2018-07-07T09:36:57.236Z,6348.00
2018-07-07T09:37:57.181Z,6156.00
2018-07-07T09:38:57.124Z,5920.00
2018-07-07T09:39:57.056Z,5760.00
2018-07-07T09:40:56.998Z,5520.00
2018-07-07T09:41:56.939Z,5484.00
2018-07-07T09:42:56.877Z,5676.00
2018-07-07T09:43:56.839Z,5920.00
2018-07-07T09:44:56.765Z,5584.00
2018-07-07T09:45:56.705Z,5180.00
2018-07-07T09:46:56.645Z,5216.00
2018-07-07T09:47:56.586Z,4648.00
2018-07-07T09:48:56.532Z,5176.00
2018-07-07T09:49:56.463Z,4628.00
2018-07-07T09:50:56.410Z,4768.00
2018-07-07T09:51:56.349Z,5044.00
2018-07-07T09:52:56.297Z,5176.00
2018-07-07T09:53:56.230Z,5176.00
2018-07-07T09:54:56.167Z,5152.00
2018-07-07T09:55:56.112Z,5028.00
2018-07-07T09:56:56.059Z,4940.00
2018-07-07T09:57:55.998Z,4896.00
2018-07-07T09:58:55.936Z,4924.00
2018-07-07T09:59:55.875Z,4920.00
2018-07-07T10:00:55.814Z,4952.00
2018-07-07T10:01:55.788Z,4976.00
2018-07-07T10:02:55.707Z,5008.00
2018-07-07T10:03:55.635Z,5048.00
2018-07-07T10:04:55.586Z,5052.00
2018-07-07T10:05:55.528Z,5056.00
2018-07-07T10:06:55.462Z,5024.00
2018-07-07T10:07:55.406Z,4972.00
2018-07-07T10:08:55.344Z,4932.00
2018-07-07T10:09:55.289Z,4924.00
2018-07-07T10:10:55.227Z,4896.00
2018-07-07T10:11:55.164Z,4860.00
2018-07-07T10:12:55.107Z,4868.00
2018-07-07T10:13:55.049Z,4884.00
2018-07-07T10:14:54.993Z,4932.00
2018-07-07T10:15:54.930Z,4932.00
2018-07-07T10:16:54.874Z,4936.00
2018-07-07T10:17:54.815Z,4964.00
2018-07-07T10:18:54.756Z,4964.00
2018-07-07T10:19:54.702Z,4956.00
2018-07-07T10:20:54.634Z,4968.00
2018-07-07T10:21:54.582Z,4944.00
2018-07-07T10:22:54.526Z,4924.00
2018-07-07T10:23:54.463Z,4896.00
2018-07-07T10:24:54.401Z,4908.00
2018-07-07T10:25:54.342Z,4896.00
2018-07-07T10:26:54.277Z,4904.00
2018-07-07T10:27:54.224Z,4912.00
2018-07-07T10:28:54.171Z,4952.00
2018-07-07T10:29:54.109Z,5008.00
2018-07-07T10:30:54.059Z,5092.00
2018-07-07T10:33:16.078Z,5080.00
2018-07-07T10:34:15.905Z,5000.00
2018-07-07T10:36:10.191Z,5004.00
2018-07-07T10:37:10.095Z,5132.00
2018-07-07T10:39:03.977Z,5396.00
2018-07-07T10:40:03.571Z,5460.00
2018-07-07T10:42:05.456Z,5544.00
2018-07-07T10:45:18.460Z,5300.00
2018-07-07T10:46:17.766Z,5308.00
2018-07-07T10:48:11.096Z,5284.00
2018-07-07T10:49:10.985Z,5312.00
2018-07-07T10:51:05.283Z,5356.00
2018-07-07T10:52:13.824Z,5392.00
2018-07-07T10:54:07.146Z,5500.00
2018-07-07T10:54:59.408Z,5532.00
2018-07-07T10:56:54.329Z,5576.00
2018-07-07T10:57:53.622Z,5548.00
2018-07-07T10:59:46.928Z,5640.00
2018-07-07T11:00:46.852Z,5752.00
2018-07-07T11:02:40.218Z,6028.00
2018-07-07T11:03:40.065Z,6128.00
2018-07-07T11:05:33.401Z,6204.00
2018-07-07T11:06:33.276Z,6296.00
2018-07-07T11:07:33.222Z,6476.00
2018-07-07T11:08:33.158Z,6652.00
2018-07-07T11:09:33.109Z,6900.00
2018-07-07T11:10:33.048Z,9196.00
2018-07-07T11:11:32.995Z,14080.00
2018-07-07T11:12:32.931Z,15344.00
2018-07-07T11:13:32.878Z,24256.00
2018-07-07T11:14:32.817Z,83456.00
2018-07-07T11:15:32.760Z,106336.00
2018-07-07T11:16:32.704Z,114016.00
2018-07-07T11:17:32.653Z,121504.00
2018-07-07T11:18:32.597Z,122624.00
2018-07-07T11:19:32.536Z,115936.00
2018-07-07T11:20:33.537Z,108000.00
2018-07-07T11:21:41.240Z,108352.00
2018-07-07T11:23:26.743Z,120992.00
2018-07-07T11:24:26.648Z,122368.00
2018-07-07T11:26:20.973Z,110816.00
2018-07-07T11:27:20.883Z,105696.00
2018-07-07T11:29:15.325Z,121664.00
2018-07-07T11:30:15.240Z,124960.00
2018-07-07T11:32:08.669Z,114432.00
2018-07-07T11:33:08.480Z,113472.00
2018-07-07T11:35:02.792Z,126208.00
2018-07-07T11:36:02.711Z,127968.00
2018-07-07T11:37:02.699Z,123200.00
2018-07-07T11:38:02.606Z,116928.00
2018-07-07T11:39:02.578Z,114368.00
2018-07-07T11:40:02.505Z,115168.00
2018-07-07T11:41:02.475Z,116864.00
2018-07-07T11:42:10.096Z,119072.00
2018-07-07T11:43:56.326Z,112896.00
2018-07-07T11:44:55.678Z,111392.00
2018-07-07T11:46:49.605Z,118432.00
2018-07-07T11:47:48.925Z,117888.00
2018-07-07T11:48:48.873Z,116032.00
2018-07-07T11:49:48.820Z,116064.00
2018-07-07T11:50:48.776Z,118304.00
2018-07-07T11:51:48.732Z,118400.00
2018-07-07T11:52:48.673Z,111616.00
2018-07-07T11:53:48.635Z,103616.00
2018-07-07T11:54:48.580Z,97248.00
2018-07-07T11:55:48.532Z,99360.00
2018-07-07T11:56:48.490Z,115072.00
2018-07-07T11:57:48.443Z,124832.00
2018-07-07T11:58:48.403Z,124416.00
2018-07-07T11:59:48.393Z,83072.00
2018-07-07T12:00:48.299Z,111168.00
2018-07-07T12:01:48.257Z,110272.00
2018-07-07T12:02:48.212Z,107968.00
2018-07-07T12:03:48.170Z,118688.00
2018-07-07T12:04:48.182Z,117472.00
2018-07-07T12:05:48.072Z,124448.00
2018-07-07T12:06:48.028Z,95008.00
2018-07-07T12:07:47.982Z,116800.00
2018-07-07T12:08:47.940Z,116352.00
2018-07-07T12:09:47.903Z,137600.00
2018-07-07T12:10:47.856Z,136224.00
2018-07-07T12:11:47.830Z,126848.00
2018-07-07T12:12:47.757Z,103936.00
2018-07-07T12:13:47.717Z,120352.00
2018-07-07T12:14:47.668Z,120896.00
2018-07-07T12:15:47.628Z,123008.00
2018-07-07T12:16:47.579Z,118240.00
2018-07-07T12:17:47.544Z,112640.00
2018-07-07T12:18:47.489Z,109088.00
2018-07-07T12:19:47.444Z,110368.00
2018-07-07T12:20:47.398Z,118496.00
2018-07-07T12:21:47.359Z,126368.00
2018-07-07T12:22:47.311Z,131072.00
2018-07-07T12:23:47.271Z,127104.00
2018-07-07T12:24:47.246Z,118112.00
2018-07-07T12:25:47.180Z,112064.00
2018-07-07T12:26:47.134Z,116128.00
2018-07-07T12:27:47.094Z,124320.00
2018-07-07T12:28:47.060Z,127712.00
2018-07-07T12:29:47.007Z,125792.00
2018-07-07T12:30:46.958Z,123520.00
2018-07-07T12:31:46.907Z,120832.00
2018-07-07T12:32:46.886Z,116960.00
2018-07-07T12:33:46.818Z,114432.00
2018-07-07T12:34:46.780Z,112192.00
2018-07-07T12:35:46.740Z,112896.00